createdAt,value
2022-08-01T06:20:23.911Z,61.40
2022-08-01T06:21:25.881Z,61.06
2022-08-01T06:22:27.828Z,61.15
2022-08-01T06:23:32.272Z,61.22
2022-08-01T06:24:33.475Z,61.21
2022-08-01T06:25:35.376Z,61.33
2022-08-01T06:26:37.257Z,61.21
2022-08-01T06:27:39.126Z,61.23
2022-08-01T06:28:40.978Z,61.21
2022-08-01T06:29:51.278Z,61.07
2022-08-01T06:30:46.745Z,61.41
2022-08-01T06:31:48.614Z,61.63
2022-08-01T06:32:50.479Z,61.70
2022-08-01T06:33:52.346Z,61.73
2022-08-01T06:34:54.229Z,61.81
2022-08-01T06:35:56.354Z,61.84
2022-08-01T06:36:58.428Z,62.11
2022-08-01T06:38:00.306Z,62.18
2022-08-01T06:39:02.179Z,62.43
2022-08-01T06:40:04.054Z,62.65
2022-08-01T06:41:05.955Z,62.78
2022-08-01T06:42:08.131Z,62.95
2022-08-01T06:43:10.202Z,62.98
2022-08-01T06:44:12.083Z,63.01
2022-08-01T06:45:13.950Z,62.92
2022-08-01T06:46:16.364Z,62.88
2022-08-01T06:47:18.240Z,62.97
2022-08-01T06:48:20.092Z,63.16
2022-08-01T06:49:22.052Z,63.17
2022-08-01T06:50:25.738Z,63.12
2022-08-01T06:51:27.641Z,63.18
2022-08-01T06:52:29.494Z,63.35
2022-08-01T06:53:36.265Z,63.43
2022-08-01T06:54:35.090Z,63.56
2022-08-01T06:55:36.955Z,63.43
2022-08-01T06:56:39.268Z,63.50
2022-08-01T06:57:41.135Z,63.62
2022-08-01T06:58:43.025Z,63.44
2022-08-01T06:59:54.536Z,63.38
2022-08-01T07:00:48.760Z,63.47
2022-08-01T07:01:50.712Z,63.63
2022-08-01T07:02:52.683Z,63.78
2022-08-01T07:03:55.159Z,64.01
2022-08-01T07:04:57.044Z,64.12
2022-08-01T07:05:58.914Z,64.24
2022-08-01T07:07:00.833Z,64.11
2022-08-01T07:08:02.689Z,64.28
2022-08-01T07:09:10.799Z,64.40
2022-08-01T07:10:08.488Z,64.52
2022-08-01T07:11:10.358Z,64.57
2022-08-01T07:12:12.266Z,64.61
2022-08-01T07:13:14.124Z,64.64
2022-08-01T07:14:16.327Z,64.60
2022-08-01T07:15:18.384Z,64.70
2022-08-01T07:16:22.066Z,64.90
2022-08-01T07:17:24.097Z,64.81
2022-08-01T07:18:26.366Z,64.86
2022-08-01T07:19:28.340Z,64.88
2022-08-01T07:20:36.274Z,65.14
2022-08-01T07:21:40.308Z,65.27
2022-08-01T07:22:39.562Z,65.28
2022-08-01T07:23:45.997Z,65.37
2022-08-01T07:24:46.074Z,65.59
2022-08-01T07:25:50.698Z,65.60
2022-08-01T07:26:54.003Z,65.70
2022-08-01T07:27:55.574Z,65.69
2022-08-01T07:28:57.449Z,65.50
2022-08-01T07:29:59.334Z,65.44
2022-08-01T07:31:01.279Z,65.53
2022-08-01T07:32:03.693Z,65.37
2022-08-01T07:33:05.649Z,65.26
2022-08-01T07:34:07.501Z,65.35
2022-08-01T07:35:09.375Z,65.30
2022-08-01T07:36:13.043Z,65.26
2022-08-01T07:37:14.912Z,65.14
2022-08-01T07:38:16.814Z,65.06
2022-08-01T07:39:18.682Z,65.02
2022-08-01T07:40:21.231Z,65.02
2022-08-01T07:41:45.533Z,64.94
2022-08-01T07:42:28.710Z,64.85
2022-08-01T07:43:30.724Z,64.70
2022-08-01T07:44:32.585Z,64.67
2022-08-01T07:45:34.447Z,64.74
2022-08-01T07:46:36.735Z,64.84
2022-08-01T07:47:38.609Z,64.66
2022-08-01T07:48:40.518Z,64.61
2022-08-01T07:49:42.440Z,64.64
2022-08-01T07:50:44.454Z,64.58
2022-08-01T07:52:03.935Z,64.56
2022-08-01T07:52:50.009Z,64.56
2022-08-01T07:53:51.930Z,64.50
2022-08-01T07:54:53.856Z,64.58
2022-08-01T07:55:55.856Z,64.51
2022-08-01T07:56:57.930Z,64.60
2022-08-01T07:57:59.803Z,64.54
2022-08-01T07:59:01.716Z,64.67
2022-08-01T08:00:03.802Z,64.79
2022-08-01T08:01:05.862Z,64.81
2022-08-01T08:02:07.954Z,65.00
2022-08-01T08:03:10.025Z,64.98
2022-08-01T08:04:11.999Z,65.00
2022-08-01T08:05:13.920Z,64.93
2022-08-01T08:06:17.543Z,64.87
2022-08-01T08:07:19.370Z,65.08
2022-08-01T08:08:21.229Z,64.78
2022-08-01T08:09:23.967Z,64.78
2022-08-01T08:10:27.676Z,64.87
2022-08-01T08:11:29.936Z,64.83
2022-08-01T08:12:32.068Z,64.97
2022-08-01T08:13:33.908Z,65.50
2022-08-01T08:14:35.812Z,65.67
2022-08-01T08:15:38.446Z,65.62
2022-08-01T08:16:40.445Z,65.53
2022-08-01T08:17:42.286Z,65.55
2022-08-01T08:18:44.133Z,65.47
2022-08-01T08:19:46.035Z,65.47
2022-08-01T08:20:50.126Z,65.46
2022-08-01T08:21:51.723Z,65.38
2022-08-01T08:22:53.574Z,65.34
2022-08-01T08:23:55.405Z,65.07
2022-08-01T08:24:57.330Z,65.09
2022-08-01T08:26:00.990Z,65.06
2022-08-01T08:27:02.864Z,64.97
2022-08-01T08:28:04.696Z,65.01
2022-08-01T08:29:06.554Z,65.01
2022-08-01T08:30:09.093Z,64.95
2022-08-01T08:31:25.129Z,64.89
2022-08-01T08:32:15.017Z,64.99
2022-08-01T08:33:17.203Z,64.99
2022-08-01T08:34:19.044Z,65.15
2022-08-01T08:35:23.268Z,64.86
2022-08-01T08:36:30.921Z,64.86
2022-08-01T08:37:31.575Z,64.92
2022-08-01T08:38:34.844Z,64.95
2022-08-01T08:39:42.097Z,64.99
2022-08-01T08:40:40.399Z,64.99
2022-08-01T08:41:42.766Z,65.05
2022-08-01T08:42:45.504Z,65.21
2022-08-01T08:43:47.344Z,65.14
2022-08-01T08:44:49.193Z,64.84
2022-08-01T08:45:59.731Z,64.55
2022-08-01T08:46:54.732Z,64.04
2022-08-01T08:47:56.576Z,63.61
2022-08-01T08:48:58.502Z,63.31
2022-08-01T08:50:00.570Z,62.82
2022-08-01T08:51:02.449Z,62.60
2022-08-01T08:52:04.770Z,62.58
2022-08-01T08:53:06.911Z,62.41
2022-08-01T08:54:08.737Z,62.45
2022-08-01T08:55:10.574Z,62.35
2022-08-01T08:56:13.372Z,62.13
2022-08-01T08:57:15.222Z,62.12
2022-08-01T09:42:34.737Z,70.07
2022-08-01T09:43:36.786Z,69.82
2022-08-01T09:44:42.263Z,69.22
2022-08-01T09:45:45.740Z,68.46
2022-08-01T09:46:47.764Z,67.59
2022-08-01T09:47:50.127Z,66.74
2022-08-01T09:48:52.646Z,66.13
2022-08-01T09:49:55.302Z,65.67
2022-08-01T09:51:04.695Z,65.26
2022-08-01T09:52:02.645Z,64.83
2022-08-01T09:53:05.020Z,64.50
2022-08-01T09:54:07.578Z,64.14
2022-08-01T09:55:09.533Z,63.87
2022-08-01T09:56:11.862Z,63.66
2022-08-01T09:57:13.746Z,63.45
2022-08-01T09:58:15.692Z,63.21
2022-08-01T09:59:17.655Z,63.00
2022-08-01T10:00:43.705Z,62.84
2022-08-01T10:01:23.395Z,62.50
2022-08-01T10:02:25.756Z,62.19
2022-08-01T10:03:29.299Z,62.08
2022-08-01T10:04:31.304Z,61.89
2022-08-01T10:05:37.209Z,61.63
2022-08-01T10:06:38.087Z,61.34
2022-08-01T10:07:43.724Z,61.27
2022-08-01T10:08:43.920Z,61.08
2022-08-01T10:09:46.281Z,61.01
2022-08-01T10:10:48.441Z,60.92
2022-08-01T10:11:52.132Z,60.82
2022-08-01T10:12:54.095Z,60.85
2022-08-01T10:13:56.866Z,60.80
2022-08-01T10:14:59.221Z,60.68
2022-08-01T10:16:01.800Z,60.62
2022-08-01T10:17:05.247Z,60.58
2022-08-01T10:18:16.380Z,60.28
2022-08-01T10:19:15.308Z,60.09
2022-08-01T10:20:29.820Z,59.90
2022-08-01T10:21:53.214Z,59.88
2022-08-01T10:22:23.127Z,59.84
2022-08-01T10:23:40.249Z,59.71
2022-08-01T10:24:29.209Z,59.63
2022-08-01T10:25:42.397Z,59.58
2022-08-01T10:26:35.032Z,59.67
2022-08-01T10:27:39.570Z,59.55
2022-08-01T10:28:40.984Z,59.34
2022-08-01T10:29:46.212Z,59.05
2022-08-01T10:30:46.734Z,58.87
2022-08-01T10:31:50.720Z,58.74
2022-08-01T10:32:52.790Z,58.77
2022-08-01T10:33:54.843Z,58.70
2022-08-01T10:34:58.743Z,58.53
2022-08-01T10:36:00.694Z,58.48
2022-08-01T10:37:03.951Z,58.34
2022-08-01T10:38:06.615Z,58.38
2022-08-01T10:39:10.336Z,58.36
2022-08-01T10:40:29.956Z,58.44
2022-08-01T10:41:17.418Z,58.60
2022-08-01T10:42:19.371Z,58.46
2022-08-01T10:43:22.348Z,58.58
2022-08-01T10:44:24.569Z,58.57
2022-08-01T10:45:26.562Z,58.56
2022-08-01T10:46:30.258Z,58.55
2022-08-01T10:47:50.155Z,58.53
2022-08-01T10:48:37.639Z,58.31
2022-08-01T10:49:39.786Z,58.16
2022-08-01T10:50:42.573Z,58.12
2022-08-01T10:51:52.216Z,58.09
2022-08-01T10:52:49.855Z,58.09
2022-08-01T10:53:54.195Z,58.16
2022-08-01T10:54:55.596Z,58.35
2022-08-01T10:56:02.309Z,58.55
2022-08-01T10:57:03.504Z,58.85
2022-08-01T10:58:05.761Z,59.19
2022-08-01T10:59:11.944Z,59.45
2022-08-01T11:00:12.024Z,59.77
2022-08-01T11:01:15.685Z,59.86
2022-08-01T11:02:17.788Z,59.95
2022-08-01T11:03:35.885Z,60.09
2022-08-01T11:04:23.518Z,60.22
2022-08-01T11:05:27.004Z,60.22
2022-08-01T11:06:30.799Z,60.16
2022-08-01T11:07:34.835Z,60.16
2022-08-01T11:08:36.443Z,60.16
2022-08-01T11:09:39.155Z,59.88
2022-08-01T11:10:41.273Z,59.79
2022-08-01T11:11:45.172Z,59.98
2022-08-01T11:12:47.227Z,60.07
2022-08-01T11:13:49.183Z,60.16
2022-08-01T11:14:55.973Z,60.42
2022-08-01T11:15:54.822Z,60.76
2022-08-01T11:16:58.013Z,60.86
2022-08-01T11:18:01.199Z,60.84
2022-08-01T11:19:03.344Z,60.75
2022-08-01T11:20:05.603Z,60.85
2022-08-01T11:21:57.707Z,60.94
2022-08-01T11:22:11.472Z,60.93
2022-08-01T11:23:13.408Z,61.21
2022-08-01T11:24:16.994Z,61.27
2022-08-01T11:25:19.362Z,61.31
2022-08-01T11:26:28.874Z,61.39
2022-08-01T11:27:25.516Z,61.40
2022-08-01T11:28:32.916Z,61.58
2022-08-01T11:29:32.294Z,61.59
2022-08-01T11:30:34.549Z,61.71
2022-08-01T11:31:37.674Z,61.79
2022-08-01T11:33:05.871Z,61.80
2022-08-01T11:33:46.146Z,61.80
2022-08-01T11:34:48.300Z,61.98
2022-08-01T11:35:50.596Z,61.82
2022-08-01T11:37:00.125Z,61.88
2022-08-01T11:37:56.405Z,61.97
2022-08-01T11:38:58.461Z,62.00
2022-08-01T11:40:01.845Z,62.07
2022-08-01T11:41:04.378Z,62.19
2022-08-01T11:42:06.470Z,62.27
2022-08-01T11:43:09.248Z,62.15
2022-08-01T11:44:11.562Z,62.13
2022-08-01T11:45:18.074Z,62.00
2022-08-01T11:46:18.271Z,62.18
2022-08-01T11:47:21.434Z,62.16
2022-08-01T11:48:27.685Z,62.07
2022-08-01T11:49:28.998Z,62.13
2022-08-01T11:50:32.018Z,62.25
2022-08-01T11:51:33.869Z,62.24
2022-08-01T11:52:37.663Z,62.13
2022-08-01T11:53:39.924Z,61.98
2022-08-01T11:54:43.007Z,61.75
2022-08-01T11:55:45.481Z,61.83
2022-08-01T11:56:49.297Z,61.82
2022-08-01T11:57:51.229Z,61.71
2022-08-01T11:58:53.283Z,61.69
2022-08-01T12:00:03.517Z,61.78
2022-08-01T12:01:00.987Z,61.70
2022-08-01T12:02:03.276Z,61.47
2022-08-01T12:03:05.449Z,61.63
2022-08-01T12:04:07.550Z,61.51
2022-08-01T12:05:11.877Z,61.50
2022-08-01T12:06:13.919Z,61.37
2022-08-01T12:07:15.867Z,61.34
2022-08-01T12:08:17.821Z,61.30
2022-08-01T12:09:19.769Z,61.21
2022-08-01T12:10:23.567Z,61.19
2022-08-01T12:11:25.518Z,61.15
2022-08-01T12:12:29.318Z,61.16
2022-08-01T12:13:31.269Z,61.07
2022-08-01T12:14:33.424Z,61.18
2022-08-01T12:15:35.372Z,61.28
2022-08-01T12:16:37.533Z,61.32
2022-08-01T12:17:39.487Z,61.38
2022-08-01T12:18:41.442Z,61.37
2022-08-01T12:19:43.389Z,61.52
2022-08-01T12:20:56.114Z,61.75
2022-08-01T12:21:53.224Z,61.90
2022-08-01T12:22:53.855Z,62.00
2022-08-01T12:23:55.808Z,62.12
2022-08-01T12:24:57.761Z,62.12
2022-08-01T12:25:59.711Z,62.10
2022-08-01T12:27:01.768Z,62.15
2022-08-01T12:28:03.723Z,62.34
2022-08-01T12:29:05.674Z,62.50
2022-08-01T12:30:08.142Z,62.63
2022-08-01T12:31:10.093Z,62.79
2022-08-01T12:32:13.889Z,62.70
2022-08-01T12:33:15.840Z,62.44
2022-08-01T12:34:17.791Z,62.29
2022-08-01T12:35:19.743Z,62.18
2022-08-01T12:36:22.617Z,62.19
2022-08-01T12:37:24.505Z,62.23
2022-08-01T12:38:26.419Z,62.13
2022-08-01T12:39:28.372Z,62.16
2022-08-01T12:40:32.174Z,62.16
2022-08-01T12:41:35.964Z,62.29
2022-08-01T12:42:37.917Z,62.55
2022-08-01T12:43:39.869Z,62.48
2022-08-01T12:44:41.822Z,62.54
2022-08-01T12:45:54.511Z,62.65
2022-08-01T12:46:49.822Z,62.67
2022-08-01T12:47:51.774Z,62.72
2022-08-01T12:48:53.779Z,62.90
2022-08-01T12:49:55.782Z,63.08
2022-08-01T12:50:57.938Z,63.18
2022-08-01T12:52:00.303Z,63.35
2022-08-01T12:53:03.474Z,63.51
2022-08-01T12:54:06.147Z,63.46
2022-08-01T12:55:09.689Z,63.41
2022-08-01T12:56:12.454Z,63.65
2022-08-01T12:57:14.567Z,63.70
2022-08-01T12:58:16.517Z,63.59
2022-08-01T12:59:18.474Z,63.62
2022-08-01T13:00:21.143Z,63.63
2022-08-01T13:01:23.381Z,63.64
2022-08-01T13:02:25.459Z,63.71
2022-08-01T13:03:28.621Z,63.77
2022-08-01T13:04:30.593Z,63.91
2022-08-01T13:05:34.996Z,64.00
2022-08-01T13:06:36.444Z,63.83
2022-08-01T13:07:45.397Z,63.77
2022-08-01T13:08:42.195Z,63.71
2022-08-01T13:09:44.143Z,63.77
2022-08-01T13:10:46.199Z,63.78
2022-08-01T13:12:10.883Z,63.88
2022-08-01T13:12:52.251Z,64.05
2022-08-01T13:13:54.132Z,64.24
2022-08-01T13:14:56.050Z,64.40
2022-08-01T13:15:58.012Z,64.44
2022-08-01T13:17:01.599Z,64.56
2022-08-01T13:18:03.558Z,64.66
2022-08-01T13:19:05.504Z,64.72
2022-08-01T13:20:08.068Z,64.92
2022-08-01T13:21:10.043Z,64.95
2022-08-01T13:22:12.181Z,65.03
2022-08-01T13:23:15.273Z,65.15
2022-08-01T13:24:17.928Z,65.25
2022-08-01T13:25:22.588Z,65.25
2022-08-01T13:26:24.086Z,65.17
2022-08-01T13:27:27.913Z,65.13
2022-08-01T13:28:29.937Z,65.10
2022-08-01T13:29:31.888Z,65.04
2022-08-01T13:30:34.662Z,65.05
2022-08-01T13:31:36.618Z,65.12
2022-08-01T13:32:38.678Z,64.90
2022-08-01T13:33:40.623Z,64.87
2022-08-01T13:34:42.574Z,64.92
2022-08-01T13:35:44.529Z,64.98
2022-08-01T13:36:49.345Z,65.01
2022-08-01T13:37:50.479Z,65.04
2022-08-01T13:38:52.431Z,65.13
2022-08-01T13:39:54.381Z,65.21
2022-08-01T13:40:56.440Z,65.31
2022-08-01T13:41:58.393Z,65.35
2022-08-01T13:43:00.345Z,65.34
2022-08-01T13:44:02.299Z,65.47
2022-08-01T13:45:04.183Z,65.47
2022-08-01T13:46:08.664Z,65.52
2022-08-01T13:47:15.342Z,65.60
2022-08-01T13:48:19.028Z,65.62
2022-08-01T13:49:19.271Z,65.73
2022-08-01T13:50:23.854Z,65.72
2022-08-01T13:51:25.794Z,65.81
2022-08-01T13:52:27.749Z,65.96
2022-08-01T13:53:29.701Z,65.96
2022-08-01T13:54:31.650Z,65.87
2022-08-01T13:55:35.355Z,65.90
2022-08-01T13:56:37.506Z,65.96
2022-08-01T13:57:39.461Z,66.00
2022-08-01T13:58:41.405Z,66.07
2022-08-01T13:59:43.360Z,66.07
2022-08-01T14:00:45.486Z,66.07
2022-08-01T14:01:47.599Z,66.08
2022-08-01T14:02:49.726Z,66.10
2022-08-01T14:03:51.785Z,66.07
2022-08-01T14:04:53.783Z,66.03
2022-08-01T14:05:58.795Z,65.96
2022-08-01T14:07:01.990Z,65.89
2022-08-01T14:08:03.277Z,65.91
2022-08-01T14:09:17.436Z,65.89
2022-08-01T14:10:19.872Z,66.00
2022-08-01T14:11:14.662Z,66.14
2022-08-01T14:12:16.604Z,66.02
2022-08-01T14:13:18.561Z,65.91
2022-08-01T14:14:22.359Z,65.90
2022-08-01T14:15:37.602Z,65.73
2022-08-01T14:16:29.027Z,65.70
2022-08-01T14:17:30.988Z,65.74
2022-08-01T14:18:32.932Z,65.66
2022-08-01T14:19:37.470Z,65.70
2022-08-01T14:20:38.998Z,65.74
2022-08-01T14:21:41.153Z,65.81
2022-08-01T14:22:43.099Z,65.80
2022-08-01T14:23:45.059Z,65.74
2022-08-01T14:24:47.002Z,65.45
2022-08-01T14:26:02.659Z,65.45
2022-08-01T14:26:53.462Z,65.47
2022-08-01T14:27:55.419Z,65.55
2022-08-01T14:28:57.383Z,65.61
2022-08-01T14:30:02.569Z,65.54
2022-08-01T14:31:03.018Z,65.45
2022-08-01T14:32:05.204Z,65.36
2022-08-01T14:33:07.437Z,65.26
2022-08-01T14:34:09.397Z,65.01
2022-08-01T14:35:11.444Z,64.40
2022-08-01T14:36:29.273Z,63.80
2022-08-01T14:37:17.808Z,63.52
2022-08-01T14:38:29.179Z,63.22
2022-08-01T14:39:23.550Z,63.09
2022-08-01T14:40:27.452Z,63.07
2022-08-01T14:41:30.916Z,63.26
2022-08-01T14:42:33.916Z,63.43
2022-08-01T14:43:35.889Z,63.50
2022-08-01T14:44:37.728Z,63.63
2022-08-01T14:45:41.524Z,63.68
2022-08-01T14:46:58.130Z,63.58
2022-08-01T14:47:47.263Z,63.52
2022-08-01T14:48:49.282Z,63.51
2022-08-01T14:49:51.319Z,63.36
2022-08-01T14:50:53.735Z,63.24
2022-08-01T14:51:55.686Z,63.22
2022-08-01T14:52:57.660Z,63.14
2022-08-01T14:53:59.626Z,63.07
2022-08-01T14:55:02.058Z,63.00
2022-08-01T14:56:04.130Z,63.03
2022-08-01T14:57:06.057Z,63.04
2022-08-01T14:58:07.909Z,63.03
2022-08-01T14:59:21.121Z,62.63
2022-08-01T15:00:13.761Z,62.93
2022-08-01T15:01:16.293Z,62.99
2022-08-01T15:02:18.361Z,62.90
2022-08-01T15:03:20.341Z,62.81
2022-08-01T15:04:22.371Z,62.76
2022-08-01T15:05:24.551Z,62.73
2022-08-01T15:06:26.809Z,62.64
2022-08-01T15:07:28.788Z,62.58
2022-08-01T15:08:30.619Z,62.50
2022-08-01T15:09:32.477Z,62.44
2022-08-01T15:10:34.416Z,62.39
2022-08-01T15:11:36.368Z,62.33
2022-08-01T15:12:49.898Z,62.31
2022-08-01T15:13:42.745Z,62.27
2022-08-01T15:14:44.991Z,62.19
2022-08-01T15:15:46.946Z,62.08
2022-08-01T15:16:48.998Z,62.01
2022-08-01T15:17:50.850Z,61.94
2022-08-01T15:18:52.798Z,61.91
2022-08-01T15:19:54.753Z,62.04
2022-08-01T15:20:56.805Z,62.04
2022-08-01T15:21:59.374Z,61.99
2022-08-01T15:23:02.776Z,62.11
2022-08-01T15:24:04.912Z,62.16
2022-08-01T15:25:06.876Z,61.92
2022-08-01T15:26:09.439Z,61.92
2022-08-01T15:27:11.388Z,62.00
2022-08-01T15:28:13.358Z,61.89
2022-08-01T15:29:15.700Z,61.83
2022-08-01T15:30:21.552Z,61.86
2022-08-01T15:31:22.784Z,61.88
2022-08-01T15:32:24.735Z,62.01
2022-08-01T15:33:26.601Z,62.06
2022-08-01T15:34:28.540Z,62.25
2022-08-01T15:35:30.387Z,62.31
2022-08-01T15:36:33.371Z,62.41
2022-08-01T15:37:39.611Z,62.39
2022-08-01T15:38:39.092Z,62.39
2022-08-01T15:39:40.960Z,62.39
2022-08-01T15:40:43.014Z,62.47
2022-08-01T15:41:44.866Z,62.55
2022-08-01T15:42:46.823Z,62.56
2022-08-01T15:43:56.276Z,62.64
2022-08-01T15:44:52.466Z,63.02
2022-08-01T15:45:54.524Z,63.02
2022-08-01T15:46:56.782Z,62.98
2022-08-01T15:47:58.735Z,62.99
2022-08-01T15:49:00.699Z,62.90
2022-08-01T15:50:02.846Z,62.92
2022-08-01T15:51:04.797Z,62.88
2022-08-01T15:52:07.128Z,62.97
2022-08-01T15:53:10.544Z,63.13
2022-08-01T15:54:14.773Z,63.18
2022-08-01T15:55:16.293Z,63.34
2022-08-01T15:56:19.985Z,63.35
2022-08-01T15:57:21.945Z,63.40
2022-08-01T15:58:23.890Z,63.58
2022-08-01T15:59:25.837Z,63.63
2022-08-01T16:00:32.876Z,63.75
2022-08-01T16:01:32.182Z,63.90
2022-08-01T16:02:34.358Z,63.98
2022-08-01T16:03:36.319Z,63.97
2022-08-01T16:04:38.743Z,63.99
2022-08-01T16:05:44.127Z,64.03
2022-08-01T16:06:44.831Z,64.03
2022-08-01T16:07:57.067Z,64.00
2022-08-01T16:08:50.585Z,63.97
2022-08-01T16:09:52.531Z,63.95
2022-08-01T16:10:54.996Z,63.97
2022-08-01T16:11:56.947Z,64.03
2022-08-01T16:12:58.900Z,64.09
2022-08-01T16:14:02.696Z,64.24
2022-08-01T16:15:04.648Z,64.39
2022-08-01T16:16:07.316Z,64.45
2022-08-01T16:17:09.278Z,64.47
2022-08-01T16:18:11.234Z,64.42
2022-08-01T16:19:19.012Z,64.37
2022-08-01T16:20:18.154Z,64.34
2022-08-01T16:21:20.051Z,64.37
2022-08-01T16:22:22.219Z,64.33
2022-08-01T16:23:24.080Z,64.42
2022-08-01T16:24:26.127Z,64.37
2022-08-01T16:25:28.082Z,64.37
2022-08-01T16:26:30.444Z,64.49
2022-08-01T16:27:32.390Z,64.57
2022-08-01T16:28:34.343Z,64.53
2022-08-01T16:29:36.398Z,64.46
2022-08-01T16:30:38.663Z,64.42
2022-08-01T16:32:01.475Z,64.42
2022-08-01T16:32:48.770Z,64.35
2022-08-01T16:33:55.054Z,64.39
2022-08-01T16:34:53.738Z,64.36
2022-08-01T16:35:56.717Z,64.41
2022-08-01T16:37:00.507Z,64.41
2022-08-01T16:38:02.462Z,64.49
2022-08-01T16:39:04.413Z,64.64
2022-08-01T16:40:06.676Z,64.72
2022-08-01T16:41:19.565Z,64.71
2022-08-01T16:42:12.945Z,64.64
2022-08-01T16:43:15.192Z,64.62
2022-08-01T16:44:17.148Z,64.61
2022-08-01T16:45:20.944Z,64.50
2022-08-01T16:46:24.124Z,64.39
2022-08-01T16:47:26.074Z,64.44
2022-08-01T16:48:28.545Z,64.42
2022-08-01T16:49:30.587Z,64.33
2022-08-01T16:50:32.758Z,64.36
2022-08-01T16:51:36.510Z,64.35
2022-08-01T16:52:42.196Z,64.26
2022-08-01T16:53:42.297Z,63.99
2022-08-01T16:54:44.248Z,63.93
2022-08-01T16:55:50.269Z,63.93
2022-08-01T16:56:52.138Z,63.93
2022-08-01T16:57:53.999Z,63.84
2022-08-01T16:58:55.997Z,63.60
2022-08-01T16:59:58.022Z,63.54
2022-08-01T17:01:59.201Z,63.02
2022-08-01T17:02:04.600Z,63.02
2022-08-01T17:03:17.341Z,63.03
2022-08-01T17:04:10.426Z,63.02
2022-08-01T17:05:12.585Z,63.06
2022-08-01T17:06:16.688Z,63.02
2022-08-01T17:07:18.735Z,62.97
2022-08-01T17:08:20.794Z,63.01
2022-08-01T17:09:22.746Z,63.20
2022-08-01T17:10:25.109Z,63.13
2022-08-01T17:11:27.165Z,63.15
2022-08-01T17:12:29.118Z,63.31
2022-08-01T17:13:31.067Z,63.38
2022-08-01T17:14:34.861Z,63.42
2022-08-01T17:15:36.819Z,63.38
2022-08-01T17:16:38.879Z,63.36
2022-08-01T17:17:40.831Z,63.39
2022-08-01T17:18:42.780Z,63.42
2022-08-01T17:19:44.729Z,63.55
2022-08-01T17:20:48.405Z,63.63
2022-08-01T17:21:50.576Z,63.68
2022-08-01T17:22:53.256Z,63.63
2022-08-01T17:23:55.197Z,63.67
2022-08-01T17:24:57.155Z,63.81
2022-08-01T17:25:59.310Z,63.79
2022-08-01T17:27:01.470Z,63.79
2022-08-01T17:28:03.417Z,63.86
2022-08-01T17:29:05.474Z,63.92
2022-08-01T17:30:08.041Z,63.96
2022-08-01T17:31:10.647Z,63.92
2022-08-01T17:32:12.872Z,63.93
2022-08-01T17:33:14.819Z,63.97
2022-08-01T17:34:16.778Z,64.04
2022-08-01T17:35:18.728Z,64.10
2022-08-01T17:36:21.804Z,64.07
2022-08-01T17:37:23.758Z,64.11
2022-08-01T17:38:25.712Z,64.09
2022-08-01T17:39:39.561Z,64.15
2022-08-01T17:40:40.061Z,64.10
2022-08-01T17:41:37.097Z,64.03
2022-08-01T17:42:39.514Z,63.76
2022-08-01T17:43:41.409Z,63.76
2022-08-01T17:44:49.007Z,63.92
2022-08-01T17:45:50.358Z,63.89
2022-08-01T17:46:50.955Z,63.88
2022-08-01T17:47:52.904Z,63.83
2022-08-01T17:48:54.902Z,63.81
2022-08-01T17:49:57.037Z,63.80
2022-08-01T17:50:59.412Z,63.82
2022-08-01T17:52:01.330Z,63.88
2022-08-01T17:53:03.280Z,63.86
2022-08-01T17:54:05.234Z,63.80
2022-08-01T17:55:07.187Z,63.70
2022-08-01T17:56:11.188Z,63.67
2022-08-01T17:57:13.201Z,63.57
2022-08-01T17:58:15.300Z,63.44
2022-08-01T17:59:19.199Z,63.33
2022-08-01T18:00:22.991Z,63.33
2022-08-01T18:01:27.070Z,63.37
2022-08-01T18:02:28.636Z,63.41
2022-08-01T18:03:30.998Z,63.37
2022-08-01T18:04:34.742Z,63.38
2022-08-01T18:05:38.405Z,63.39
2022-08-01T18:06:40.644Z,63.30
2022-08-01T18:08:01.173Z,63.26
2022-08-01T18:08:48.645Z,63.25
2022-08-01T18:09:50.861Z,63.29
2022-08-01T18:10:53.888Z,63.26
2022-08-01T18:11:55.840Z,63.21
2022-08-01T18:12:59.223Z,63.21
2022-08-01T18:14:01.992Z,63.17
2022-08-01T18:15:04.372Z,63.05
2022-08-01T18:16:06.618Z,63.04
2022-08-01T18:17:11.142Z,63.05
2022-08-01T18:18:12.361Z,63.07
2022-08-01T18:19:14.316Z,63.07
2022-08-01T18:20:17.804Z,63.06
2022-08-01T18:21:19.859Z,62.96
2022-08-01T18:22:32.635Z,62.86
2022-08-01T18:23:26.223Z,62.81
2022-08-01T18:24:28.181Z,62.80
2022-08-01T18:25:30.132Z,62.71
2022-08-01T18:26:32.800Z,62.67
2022-08-01T18:28:16.388Z,62.63
2022-08-01T18:28:41.664Z,62.50
2022-08-01T18:29:47.014Z,62.43
2022-08-01T18:30:46.241Z,62.43
2022-08-01T18:31:48.191Z,62.43
2022-08-01T18:32:50.142Z,62.30
2022-08-01T18:33:52.100Z,62.20
2022-08-01T18:34:54.053Z,62.17
2022-08-01T18:35:56.002Z,62.10
2022-08-01T18:36:59.792Z,62.00
2022-08-01T18:38:02.258Z,61.92
2022-08-01T18:39:05.359Z,61.74
2022-08-01T18:40:08.417Z,61.64
2022-08-01T18:41:10.475Z,61.52
2022-08-01T18:42:12.524Z,61.41
2022-08-01T18:43:14.675Z,61.47
2022-08-01T18:44:16.637Z,61.42
2022-08-01T18:45:18.890Z,61.34
2022-08-01T18:46:21.260Z,61.30
2022-08-01T18:47:23.207Z,61.23
2022-08-01T18:48:25.271Z,61.17
2022-08-01T18:49:27.306Z,61.04
2022-08-01T18:50:30.090Z,60.91
2022-08-01T18:51:32.045Z,60.87
2022-08-01T18:52:33.990Z,60.81
2022-08-01T18:53:35.948Z,60.73
2022-08-01T18:54:37.903Z,60.66
2022-08-01T18:55:39.857Z,60.39
2022-08-01T18:56:41.909Z,60.39
2022-08-01T18:57:43.867Z,60.50
2022-08-01T18:58:45.812Z,60.44
2022-08-01T18:59:47.769Z,60.31
2022-08-01T19:00:50.075Z,60.17
2022-08-01T19:01:52.347Z,60.05
2022-08-01T19:02:54.339Z,60.04
2022-08-01T19:03:56.280Z,60.01
2022-08-01T19:04:58.260Z,60.04
2022-08-01T19:06:00.197Z,60.16
2022-08-01T19:07:02.151Z,60.27
2022-08-01T19:08:05.863Z,60.32
2022-08-01T19:09:08.007Z,60.33
2022-08-01T19:10:11.693Z,60.39
2022-08-01T19:11:13.649Z,60.31
2022-08-01T19:12:15.623Z,60.30
2022-08-01T19:13:17.553Z,60.37
2022-08-01T19:14:19.507Z,60.43
2022-08-01T19:15:21.460Z,60.41
2022-08-01T19:16:24.847Z,60.41
2022-08-01T19:17:26.798Z,60.43
2022-08-01T19:18:28.750Z,60.73
2022-08-01T19:19:30.700Z,60.47
2022-08-01T19:20:33.677Z,60.54
2022-08-01T19:21:36.350Z,60.67
2022-08-01T19:22:38.299Z,60.70
2022-08-01T19:23:40.458Z,60.68
2022-08-01T19:24:42.413Z,60.64
2022-08-01T19:25:55.279Z,60.67
2022-08-01T19:26:48.269Z,60.64
2022-08-01T19:27:50.214Z,60.65
2022-08-01T19:28:52.163Z,60.72
2022-08-01T19:29:54.118Z,60.69
2022-08-01T19:30:56.176Z,60.83
2022-08-01T19:31:58.330Z,60.82
2022-08-01T19:33:00.387Z,60.88
2022-08-01T19:34:02.337Z,60.91
2022-08-01T19:35:04.291Z,60.95
2022-08-01T19:36:06.550Z,60.97
2022-08-01T19:37:08.817Z,61.06
2022-08-01T19:38:11.071Z,61.02
2022-08-01T19:39:13.011Z,61.09
2022-08-01T19:40:27.035Z,61.19
2022-08-01T19:41:20.088Z,61.09
2022-08-01T19:42:22.775Z,60.98
2022-08-01T19:43:24.720Z,60.93
2022-08-01T19:44:26.569Z,60.99
2022-08-01T19:45:28.537Z,60.90
2022-08-01T19:46:31.093Z,60.85
2022-08-01T19:47:51.763Z,60.92
2022-08-01T19:48:36.944Z,60.98
2022-08-01T19:49:38.968Z,60.98
2022-08-01T19:50:41.056Z,60.98
2022-08-01T19:51:43.107Z,60.99
2022-08-01T19:52:45.051Z,61.00
2022-08-01T19:53:47.014Z,61.19
2022-08-01T19:54:48.956Z,61.26
2022-08-01T19:55:50.913Z,61.20
2022-08-01T19:56:53.081Z,61.18
2022-08-01T19:59:00.458Z,61.23
2022-08-01T20:00:02.622Z,61.34
2022-08-01T20:01:04.563Z,61.42
2022-08-01T20:02:09.698Z,61.44
2022-08-01T20:03:11.985Z,61.50
2022-08-01T20:04:14.008Z,61.50
2022-08-01T20:05:15.967Z,61.52
2022-08-01T20:06:19.659Z,61.52
2022-08-01T20:07:23.448Z,61.60
2022-08-01T20:08:25.406Z,61.54
2022-08-01T20:09:27.356Z,61.52
2022-08-01T20:10:30.231Z,61.58
2022-08-01T20:11:32.279Z,61.59
2022-08-01T20:12:34.241Z,61.58
2022-08-01T20:13:36.958Z,61.53
2022-08-01T20:14:39.888Z,61.44
2022-08-01T20:15:41.843Z,61.29
2022-08-01T20:16:43.990Z,61.16
2022-08-01T20:17:45.935Z,61.05
2022-08-01T20:18:47.901Z,61.05
2022-08-01T20:19:49.841Z,60.94
2022-08-01T20:20:51.893Z,60.94
2022-08-01T20:22:02.994Z,61.24
2022-08-01T20:22:57.492Z,61.48
2022-08-01T20:24:02.439Z,61.65
2022-08-01T20:25:03.185Z,61.86
2022-08-01T20:26:05.442Z,61.95
2022-08-01T20:27:07.822Z,61.93
2022-08-01T20:28:09.971Z,62.07
2022-08-01T20:29:11.917Z,62.12
2022-08-01T20:30:14.285Z,62.05